Terminal Aerodrome Forecast
Issued by NWS

Home | Current Version | Previous Version | Text Only | Print | Product List | Glossary On
Versions: 1 2 3 4 5 6 7 8 9 10 11 12 13 14 15 16 17 18 19 20 21 22 23 24 25 26 27 28 29
000
FTUS41 KBGM 041100
TAFRME
TAF
KRME 041136Z 0412/0512 28008KT P6SM OVC015
      TEMPO 0412/0414 -FZDZ
     FM041800 28010KT P6SM OVC025
     FM050000 29008KT P6SM OVC035=

USA.gov is the U.S. government's official web portal to all federal, state and local government web resources and services.